Musselfork, Missouri
Current Conditions -  °F | °C
As of 1:55 AM on Sunday 26 Oct 2014 (Local Time) from KVER Reporting Station
Clear Clear  
Wind Chill: 15°   Ceiling: Unl
Heat Index: 15°   Visibility: 10mi
Dew Point: 10°   Wind: 5mph
Humidity: 73%   Direction: 70°ENE
Pressure: 30.01"   Gusts: NA
Location:  39.4953°N, 92.9281°W
Report Text: KVER 260655Z AUTO 07004KT 10SM CLR 15/10 A3001 RMK AO2 T01460099
Loading
Personal Weather Stations






























Interactive Weather Map
Tropical Storm Tracking
New forecast layout! Learn more

10-Day Weather Forecast

Advertisements
Track Severe Weather on mobile